TAF Text Data
IDs:
Format:
Raw Decoded Include METAR

Data at: 1414 UTC 21 Nov 2018

METAR for:KPWK (Chicago/Executive Ar, IL, US)
Text:KPWK 211352Z 35006KT 10SM OVC022 01/M06 A3027 RMK AO2 SLP256 T00061056
Temperature: 0.6°C ( 33°F)
Dewpoint: -5.6°C ( 22°F) [RH = 63%]
Pressure (altimeter):30.27 inches Hg (1025.1 mb) [Sea level pressure: 1025.6 mb]
Winds:from the N (350 degrees) at 7 MPH (6 knots; 3.1 m/s)
Visibility:10 or more sm (16+ km)
Ceiling:2200 feet AGL
Clouds: overcast cloud deck at 2200 feet AGL

TAF for:KPWK (Chicago/Executive Ar, IL, US)
Text:No data found

METAR for:KORD (Chicago/O'Hare Intl, IL, US)
Text:KORD 211351Z 01012KT 10SM OVC022 01/M04 A3024 RMK AO2 SLP249 T00061044 $
Temperature: 0.6°C ( 33°F)
Dewpoint: -4.4°C ( 24°F) [RH = 69%]
Pressure (altimeter):30.24 inches Hg (1024.1 mb) [Sea level pressure: 1024.9 mb]
Winds:from the N (10 degrees) at 14 MPH (12 knots; 6.2 m/s)
Visibility:10 or more sm (16+ km)
Ceiling:2200 feet AGL
Clouds: overcast cloud deck at 2200 feet AGL
QC Flag:SOME DATA ABOVE MAY BE INACCURATE!!!"$" is an indication the sensor requires maintenance.

TAF for:KORD (Chicago/O'Hare Intl, IL, US) issued at 1139 UTC 21 Nov 2018
Text:KORD 211139Z 2112/2218 34009KT P6SM OVC020
Forecast period:1200 to 1500 UTC 21 November 2018
Forecast type:FROM: standard forecast or significant change
Winds:from the NNW (340 degrees) at 10 MPH (9 knots; 4.6 m/s)
Visibility:6 or more sm (10+ km)
Ceiling:2000 feet AGL
Clouds: overcast cloud deck at 2000 feet AGL
Text:FM211500 01012KT P6SM OVC025
Forecast period:1500 to 2000 UTC 21 November 2018
Forecast type:FROM: standard forecast or significant change
Winds:from the N (10 degrees) at 14 MPH (12 knots; 6.2 m/s)
Visibility:6 or more sm (10+ km)
Ceiling:2500 feet AGL
Clouds: overcast cloud deck at 2500 feet AGL
Text:FM212000 03010KT P6SM FEW025 OVC035
Forecast period:2000 UTC 21 November 2018 to 0300 UTC 22 November 2018
Forecast type:FROM: standard forecast or significant change
Winds:from the NNE (30 degrees) at 12 MPH (10 knots; 5.1 m/s)
Visibility:6 or more sm (10+ km)
Ceiling:3500 feet AGL
Clouds: few clouds at 2500 feet AGL, overcast cloud deck at 3500 feet AGL
Text:FM220300 08007KT P6SM OVC025
Forecast period:0300 to 0900 UTC 22 November 2018
Forecast type:FROM: standard forecast or significant change
Winds:from the E (80 degrees) at 8 MPH (7 knots; 3.6 m/s)
Visibility:6 or more sm (10+ km)
Ceiling:2500 feet AGL
Clouds: overcast cloud deck at 2500 feet AGL
Text:FM220900 13007KT P6SM BKN035
Forecast period:0900 to 1800 UTC 22 November 2018
Forecast type:FROM: standard forecast or significant change
Winds:from the SE (130 degrees) at 8 MPH (7 knots; 3.6 m/s)
Visibility:6 or more sm (10+ km)
Ceiling:3500 feet AGL
Clouds: broken clouds at 3500 feet AGL

METAR for:KRFD (Rockford Intl, IL, US)
Text:KRFD 211354Z 02009KT 8SM OVC021 00/M04 A3027 RMK AO2 SLP259 T00001044
Temperature: 0.0°C ( 32°F)
Dewpoint: -4.4°C ( 24°F) [RH = 72%]
Pressure (altimeter):30.27 inches Hg (1025.1 mb) [Sea level pressure: 1025.9 mb]
Winds:from the NNE (20 degrees) at 10 MPH (9 knots; 4.6 m/s)
Visibility: 8 sm ( 13 km)
Ceiling:2100 feet AGL
Clouds: overcast cloud deck at 2100 feet AGL

TAF for:KRFD (Rockford Intl, IL, US) issued at 1139 UTC 21 Nov 2018
Text:KRFD 211139Z 2112/2212 35010KT P6SM OVC017
Forecast period:1200 to 1500 UTC 21 November 2018
Forecast type:FROM: standard forecast or significant change
Winds:from the N (350 degrees) at 12 MPH (10 knots; 5.1 m/s)
Visibility:6 or more sm (10+ km)
Ceiling:1700 feet AGL
Clouds: overcast cloud deck at 1700 feet AGL
Text:FM211500 04010KT P6SM OVC020
Forecast period:1500 to 2300 UTC 21 November 2018
Forecast type:FROM: standard forecast or significant change
Winds:from the NE (40 degrees) at 12 MPH (10 knots; 5.1 m/s)
Visibility:6 or more sm (10+ km)
Ceiling:2000 feet AGL
Clouds: overcast cloud deck at 2000 feet AGL
Text:FM212300 09007KT P6SM BKN035
Forecast period:2300 UTC 21 November 2018 to 1200 UTC 22 November 2018
Forecast type:FROM: standard forecast or significant change
Winds:from the E (90 degrees) at 8 MPH (7 knots; 3.6 m/s)
Visibility:6 or more sm (10+ km)
Ceiling:3500 feet AGL
Clouds: broken clouds at 3500 feet AGL